Time;durP1;ratioP1;P1;durP2;ratioP2;P2;SDS_P1;SDS_P2;PMS_P1;PMS_P2;Temp;Humidity;BMP_temperature;BMP_pressure;BME280_temperature;BME280_humidity;BME280_pressure;Samples;Min_cycle;Max_cycle;Signal;HPM_P1;HPM_P2
2020/12/28 00:02:21;;;;;;;4.63;2.15;;;6.80;92.60;;;;;;5034005;28;20109;-73
2020/12/28 00:04:47;;;;;;;4.40;1.90;;;6.80;92.60;;;;;;5034688;28;20028;-73
2020/12/28 00:07:14;;;;;;;2.88;1.67;;;6.80;92.60;;;;;;5034121;28;20041;-73
2020/12/28 00:09:41;;;;;;;3.58;2.03;;;6.80;92.60;;;;;;5034278;28;20013;-72
2020/12/28 00:12:06;;;;;;;3.33;1.95;;;6.80;92.60;;;;;;5033984;28;20025;-73
2020/12/28 00:14:32;;;;;;;5.00;2.30;;;6.80;92.60;;;;;;5034599;28;20039;-73
2020/12/28 00:16:58;;;;;;;5.35;2.00;;;6.80;92.60;;;;;;5034410;28;20058;-76
2020/12/28 00:19:24;;;;;;;5.20;2.20;;;6.80;92.60;;;;;;5034503;28;20024;-73
2020/12/28 00:21:50;;;;;;;1.63;1.40;;;6.80;92.60;;;;;;5033172;28;20021;-73
2020/12/28 00:24:15;;;;;;;5.10;2.40;;;6.80;92.60;;;;;;5016118;28;20029;-72
2020/12/28 00:26:43;;;;;;;5.45;2.72;;;6.80;92.60;;;;;;5034483;28;20022;-73
2020/12/28 00:29:10;;;;;;;5.38;2.35;;;6.80;92.60;;;;;;5033622;28;20091;-73
2020/12/28 00:31:36;;;;;;;5.88;2.35;;;6.80;92.60;;;;;;5034261;28;20025;-73
2020/12/28 00:34:03;;;;;;;5.07;2.45;;;6.80;92.60;;;;;;5033646;28;20048;-73
2020/12/28 00:36:29;;;;;;;5.03;2.22;;;6.80;92.60;;;;;;5034083;28;20041;-73
2020/12/28 00:38:55;;;;;;;5.88;2.65;;;6.80;92.60;;;;;;5034044;28;20017;-73
2020/12/28 00:41:21;;;;;;;8.40;3.78;;;6.80;92.60;;;;;;5015491;28;20407;-73
2020/12/28 00:43:46;;;;;;;4.13;2.22;;;6.80;92.60;;;;;;5033986;28;20097;-73
2020/12/28 00:46:14;;;;;;;5.20;2.40;;;6.80;92.60;;;;;;5033205;28;20060;-73
2020/12/28 00:48:40;;;;;;;7.38;3.17;;;6.80;92.60;;;;;;5033906;28;20081;-73
2020/12/28 00:51:06;;;;;;;5.60;2.40;;;6.80;92.60;;;;;;5033129;28;20573;-74
2020/12/28 00:53:32;;;;;;;4.38;2.25;;;6.80;92.60;;;;;;5034071;28;20100;-73
2020/12/28 00:55:58;;;;;;;5.20;2.50;;;6.80;92.60;;;;;;5033415;28;20028;-73
2020/12/28 00:58:24;;;;;;;6.07;2.55;;;6.80;92.60;;;;;;5033108;28;20013;-73
2020/12/28 01:00:50;;;;;;;6.55;2.70;;;6.80;92.60;;;;;;5015732;28;20071;-74
2020/12/28 01:03:16;;;;;;;5.05;2.30;;;6.80;92.60;;;;;;5032949;28;20029;-73
2020/12/28 01:05:43;;;;;;;6.35;2.60;;;6.80;92.60;;;;;;5033159;28;20374;-73
2020/12/28 01:08:09;;;;;;;6.72;2.60;;;6.80;92.60;;;;;;5032972;28;20068;-73
2020/12/28 01:10:35;;;;;;;7.10;3.17;;;6.80;92.60;;;;;;5015649;28;20033;-73
2020/12/28 01:13:01;;;;;;;8.52;2.67;;;6.80;92.60;;;;;;5033328;28;20030;-73
2020/12/28 01:15:27;;;;;;;5.05;2.00;;;6.80;92.60;;;;;;5032768;28;20128;-73
2020/12/28 01:17:54;;;;;;;4.57;2.65;;;6.80;92.90;;;;;;5033318;28;20112;-73
2020/12/28 01:20:20;;;;;;;5.63;2.67;;;6.80;92.60;;;;;;5014969;28;20021;-73
2020/12/28 01:22:46;;;;;;;6.35;2.58;;;6.80;92.60;;;;;;5015379;28;20029;-73
2020/12/28 01:25:12;;;;;;;9.50;2.80;;;6.80;92.60;;;;;;5014656;28;20356;-73
2020/12/28 01:27:38;;;;;;;6.15;2.33;;;6.80;92.60;;;;;;5033331;28;20024;-74
2020/12/28 01:30:04;;;;;;;5.72;2.10;;;6.80;92.60;;;;;;5015161;28;20072;-73
2020/12/28 01:32:29;;;;;;;5.82;2.30;;;6.80;92.60;;;;;;5033036;28;20056;-73
2020/12/28 01:34:55;;;;;;;5.60;3.15;;;6.80;92.60;;;;;;5032730;28;20077;-73
2020/12/28 01:37:20;;;;;;;8.43;2.70;;;6.80;92.60;;;;;;5014803;28;20029;-73
2020/12/28 01:39:46;;;;;;;6.43;2.70;;;6.80;92.60;;;;;;5032913;28;20022;-73
2020/12/28 01:42:12;;;;;;;7.10;3.00;;;6.80;92.70;;;;;;5014858;28;20026;-74
2020/12/28 01:44:37;;;;;;;8.10;2.45;;;6.70;92.60;;;;;;5033007;28;20026;-73
2020/12/28 01:47:03;;;;;;;4.63;2.25;;;6.70;92.60;;;;;;5015190;28;20025;-73
2020/12/28 01:49:29;;;;;;;6.22;3.28;;;6.80;92.60;;;;;;5031903;28;20100;-74
2020/12/28 01:51:59;;;;;;;5.82;2.25;;;6.80;92.60;;;;;;5032419;28;20033;-74
2020/12/28 01:54:26;;;;;;;6.30;2.60;;;6.80;92.60;;;;;;5014331;28;20024;-74
2020/12/28 01:56:52;;;;;;;2.97;1.77;;;6.80;92.60;;;;;;5032647;28;20021;-74
2020/12/28 01:59:17;;;;;;;5.97;2.10;;;6.80;92.60;;;;;;5032012;28;20017;-74
2020/12/28 02:01:45;;;;;;;4.82;2.05;;;6.80;92.60;;;;;;5032660;28;20424;-74
2020/12/28 02:04:11;;;;;;;3.72;1.90;;;6.80;92.60;;;;;;5032240;28;20036;-74
2020/12/28 02:06:38;;;;;;;5.80;2.30;;;6.80;92.60;;;;;;5032630;28;20021;-74
2020/12/28 02:09:04;;;;;;;4.50;2.22;;;6.80;92.90;;;;;;5032666;28;20101;-74
2020/12/28 02:11:30;;;;;;;5.10;2.80;;;6.80;92.60;;;;;;5031966;28;20079;-73
2020/12/28 02:13:56;;;;;;;5.32;2.33;;;6.80;92.60;;;;;;5032910;28;20037;-73
2020/12/28 02:16:22;;;;;;;5.70;2.30;;;6.70;92.60;;;;;;5031899;28;20092;-74
2020/12/28 02:18:48;;;;;;;6.13;1.90;;;6.80;92.60;;;;;;5032284;28;20049;-74
2020/12/28 02:21:14;;;;;;;4.32;2.00;;;6.80;92.60;;;;;;5031381;28;20056;-74
2020/12/28 02:23:43;;;;;;;4.10;2.00;;;6.80;92.60;;;;;;5031705;28;20090;-74
2020/12/28 02:26:09;;;;;;;7.47;2.47;;;6.80;92.60;;;;;;5031834;28;20033;-77
2020/12/28 02:28:35;;;;;;;5.38;2.28;;;6.80;92.60;;;;;;5014430;28;20481;-74
2020/12/28 02:31:00;;;;;;;2.55;1.63;;;6.80;92.60;;;;;;5032089;28;20021;-72
2020/12/28 02:33:26;;;;;;;5.72;2.10;;;6.80;92.60;;;;;;5031471;28;20096;-75
2020/12/28 02:35:52;;;;;;;4.60;2.00;;;6.80;92.60;;;;;;5032336;28;20096;-74
2020/12/28 02:38:17;;;;;;;6.22;2.10;;;6.80;92.60;;;;;;5031442;28;20475;-74
2020/12/28 02:40:43;;;;;;;4.00;2.28;;;6.80;92.60;;;;;;5032133;28;20029;-73
2020/12/28 02:43:09;;;;;;;4.63;2.38;;;6.80;92.60;;;;;;5031985;28;20124;-73
2020/12/28 02:45:34;;;;;;;3.95;1.95;;;6.80;92.60;;;;;;5031100;28;20052;-74
2020/12/28 02:48:00;;;;;;;3.28;1.58;;;6.80;92.60;;;;;;5031582;28;20021;-73
2020/12/28 02:50:26;;;;;;;2.95;1.40;;;6.80;92.90;;;;;;5013575;28;20059;-73
2020/12/28 02:52:53;;;;;;;5.40;2.15;;;6.80;92.60;;;;;;5031663;28;20021;-73
2020/12/28 02:55:18;;;;;;;4.05;2.05;;;6.80;92.60;;;;;;5013481;28;20431;-73
2020/12/28 02:57:44;;;;;;;3.92;1.60;;;6.80;92.60;;;;;;5031805;28;20100;-73
2020/12/28 03:00:10;;;;;;;3.80;1.63;;;6.80;92.50;;;;;;5014051;28;20359;-73
2020/12/28 03:02:36;;;;;;;4.15;1.98;;;6.80;92.60;;;;;;5012977;28;20113;-73
2020/12/28 03:05:01;;;;;;;2.63;1.80;;;6.80;92.60;;;;;;5031724;28;20429;-74
2020/12/28 03:07:27;;;;;;;4.75;1.77;;;6.80;92.50;;;;;;5031130;28;20018;-73
2020/12/28 03:09:53;;;;;;;5.18;2.00;;;6.80;92.50;;;;;;5014039;28;20052;-73
2020/12/28 03:12:19;;;;;;;5.22;2.38;;;6.80;92.50;;;;;;5031185;28;20113;-73
2020/12/28 03:14:45;;;;;;;5.82;2.15;;;6.70;92.50;;;;;;5031301;28;20037;-73
2020/12/28 03:17:11;;;;;;;5.20;2.60;;;6.70;92.60;;;;;;5031557;28;20059;-73
2020/12/28 03:19:36;;;;;;;6.15;2.40;;;6.70;92.60;;;;;;5013272;28;20089;-73
2020/12/28 03:22:02;;;;;;;6.60;2.20;;;6.70;92.60;;;;;;5031247;28;20025;-73
2020/12/28 03:24:27;;;;;;;2.95;1.48;;;6.70;92.60;;;;;;5030116;28;20479;-75
2020/12/28 03:26:53;;;;;;;5.03;2.20;;;6.80;92.50;;;;;;5030948;28;20074;-74
2020/12/28 03:29:18;;;;;;;3.55;1.83;;;6.70;92.50;;;;;;5030327;28;20036;-73
2020/12/28 03:31:44;;;;;;;4.75;2.22;;;6.70;92.70;;;;;;5031228;28;20456;-73
2020/12/28 03:34:10;;;;;;;6.68;2.13;;;6.70;92.40;;;;;;5030573;28;20026;-73
2020/12/28 03:36:36;;;;;;;5.55;2.78;;;6.70;92.40;;;;;;5030169;28;20097;-73
2020/12/28 03:39:03;;;;;;;4.70;2.08;;;6.70;92.40;;;;;;5030749;28;20017;-73
2020/12/28 03:41:28;;;;;;;5.97;2.00;;;6.70;92.40;;;;;;5030183;28;20370;-73
2020/12/28 03:43:54;;;;;;;6.18;2.47;;;6.70;92.40;;;;;;5030784;28;20030;-73
2020/12/28 03:46:20;;;;;;;6.50;2.63;;;6.70;92.40;;;;;;5029989;28;20075;-73
2020/12/28 03:48:45;;;;;;;5.10;2.33;;;6.70;92.50;;;;;;5030790;28;20017;-74
2020/12/28 03:51:11;;;;;;;5.68;2.42;;;6.60;92.50;;;;;;5030390;28;20075;-74
2020/12/28 03:53:36;;;;;;;9.77;2.85;;;6.60;92.50;;;;;;5030456;28;20434;-74
2020/12/28 03:56:02;;;;;;;4.22;2.30;;;6.60;92.50;;;;;;5031389;28;20018;-74
2020/12/28 03:58:28;;;;;;;7.38;2.90;;;6.60;92.50;;;;;;5033133;28;20021;-74
2020/12/28 04:00:53;;;;;;;5.38;2.40;;;6.60;92.50;;;;;;5034648;28;20013;-74
2020/12/28 04:03:19;;;;;;;5.88;2.63;;;6.60;92.50;;;;;;5033795;28;20048;-74
2020/12/28 04:05:45;;;;;;;7.35;2.88;;;6.60;92.40;;;;;;5034759;28;20101;-73
2020/12/28 04:08:10;;;;;;;3.95;1.83;;;6.50;92.40;;;;;;5034676;28;20105;-74
2020/12/28 04:10:36;;;;;;;5.30;2.00;;;6.50;92.40;;;;;;5033909;28;20086;-74
2020/12/28 04:13:02;;;;;;;6.72;2.33;;;6.50;92.40;;;;;;5016881;28;20032;-74
2020/12/28 04:15:27;;;;;;;6.03;2.70;;;6.50;92.30;;;;;;5033999;28;20025;-74
2020/12/28 04:17:53;;;;;;;7.22;2.88;;;6.50;92.30;;;;;;5016719;28;20466;-73
2020/12/28 04:20:18;;;;;;;7.55;2.40;;;6.60;92.30;;;;;;5034259;28;20420;-73
2020/12/28 04:22:44;;;;;;;6.88;2.55;;;6.50;92.30;;;;;;5034634;28;20410;-73
2020/12/28 04:25:14;;;;;;;6.38;3.03;;;6.60;92.30;;;;;;5034365;28;20025;-73
2020/12/28 04:27:39;;;;;;;5.35;1.98;;;6.50;92.40;;;;;;5033862;28;20021;-74
2020/12/28 04:30:05;;;;;;;8.38;2.75;;;6.50;92.40;;;;;;5016254;28;20371;-73
2020/12/28 04:32:31;;;;;;;5.00;2.20;;;6.50;92.50;;;;;;5033727;28;20159;-72
2020/12/28 04:34:56;;;;;;;5.40;2.45;;;6.50;92.50;;;;;;5012868;28;20041;-73
2020/12/28 04:37:22;;;;;;;5.38;2.10;;;6.50;92.50;;;;;;5013835;28;20355;-73
2020/12/28 04:39:47;;;;;;;5.45;1.92;;;6.50;92.50;;;;;;5014530;28;20110;-73
2020/12/28 04:42:21;;;;;;;4.13;1.92;;;6.50;92.40;;;;;;5014104;28;20029;-73
2020/12/28 04:44:47;;;;;;;10.05;2.42;;;6.60;92.40;;;;;;5014359;28;20028;-73
2020/12/28 04:47:13;;;;;;;5.13;2.08;;;6.60;92.30;;;;;;5014185;28;20427;-74
2020/12/28 04:49:39;;;;;;;5.75;2.20;;;6.60;92.20;;;;;;5013328;28;20025;-74
2020/12/28 04:52:05;;;;;;;5.53;2.47;;;6.60;92.20;;;;;;5014164;28;20036;-73
2020/12/28 04:54:31;;;;;;;3.28;1.45;;;6.60;92.30;;;;;;5013339;28;20048;-74
2020/12/28 04:56:58;;;;;;;4.65;2.45;;;6.50;92.20;;;;;;5013876;28;20053;-74
2020/12/28 04:59:24;;;;;;;5.32;2.35;;;6.50;92.30;;;;;;5013382;28;20452;-75
2020/12/28 05:01:54;;;;;;;5.75;2.40;;;6.40;92.40;;;;;;5013654;28;20083;-74
2020/12/28 05:04:23;;;;;;;5.80;2.35;;;6.40;92.40;;;;;;5012159;28;20022;-80
2020/12/28 05:06:59;;;;;;;4.07;1.88;;;6.50;92.40;;;;;;5013793;28;20101;-74
2020/12/28 05:09:26;;;;;;;4.60;1.98;;;6.50;92.40;;;;;;5012792;28;20068;-75
2020/12/28 05:11:54;;;;;;;5.90;1.58;;;6.50;92.30;;;;;;5013755;28;20022;-74
2020/12/28 05:14:20;;;;;;;5.10;2.17;;;6.50;92.30;;;;;;5012140;28;20022;-74
2020/12/28 05:16:46;;;;;;;4.95;1.98;;;6.50;92.30;;;;;;5013654;28;20029;-74
2020/12/28 05:19:12;;;;;;;4.10;2.03;;;6.50;92.30;;;;;;5013300;28;20475;-74
2020/12/28 05:21:38;;;;;;;4.45;1.65;;;6.50;92.30;;;;;;5011668;28;20013;-74
2020/12/28 05:24:16;;;;;;;5.55;2.42;;;6.50;92.30;;;;;;5013494;28;20444;-74
2020/12/28 05:26:43;;;;;;;5.28;2.28;;;6.50;92.30;;;;;;5012866;28;20030;-74
2020/12/28 05:29:25;;;;;;;4.22;1.55;;;6.50;92.30;;;;;;5013421;28;20029;-74
2020/12/28 05:31:53;;;;;;;2.33;1.38;;;6.50;92.20;;;;;;5013413;28;20030;-74
2020/12/28 05:34:27;;;;;;;6.90;2.10;;;6.50;92.30;;;;;;5016293;28;20044;-74
2020/12/28 05:36:56;;;;;;;5.22;1.70;;;6.50;92.30;;;;;;5033123;28;20102;-74
2020/12/28 05:39:24;;;;;;;5.32;1.92;;;6.50;92.40;;;;;;5015668;28;20045;-74
2020/12/28 05:42:06;;;;;;;7.45;2.35;;;6.40;92.40;;;;;;5015428;28;20021;-73
2020/12/28 05:44:32;;;;;;;3.08;1.75;;;6.40;92.40;;;;;;5032830;28;20045;-74
2020/12/28 05:47:18;;;;;;;5.10;1.90;;;6.40;92.50;;;;;;5033153;28;20455;-73
2020/12/28 05:49:46;;;;;;;6.25;1.77;;;6.30;92.30;;;;;;5015134;28;20040;-73
2020/12/28 05:52:16;;;;;;;3.80;1.80;;;6.30;92.40;;;;;;5015636;28;20021;-73
2020/12/28 05:54:42;;;;;;;10.05;2.17;;;6.30;92.40;;;;;;4998037;28;20029;-73
2020/12/28 05:57:09;;;;;;;4.38;1.50;;;6.30;92.40;;;;;;5032858;28;20083;-73
2020/12/28 05:59:36;;;;;;;3.80;1.80;;;6.30;92.40;;;;;;5031991;28;20481;-73
2020/12/28 06:02:03;;;;;;;3.70;1.83;;;6.30;92.40;;;;;;5031930;28;20163;-73
2020/12/28 06:04:29;;;;;;;3.72;1.63;;;6.30;92.40;;;;;;5030826;28;20489;-73
2020/12/28 06:07:03;;;;;;;6.40;2.25;;;6.40;92.30;;;;;;5032511;28;20021;-73
2020/12/28 06:09:29;;;;;;;2.78;1.50;;;6.40;92.30;;;;;;5031584;28;20018;-73
2020/12/28 06:12:09;;;;;;;5.97;2.10;;;6.40;92.20;;;;;;5014739;28;20022;-74
2020/12/28 06:14:36;;;;;;;3.97;1.98;;;6.50;92.20;;;;;;5031575;28;20017;-73
2020/12/28 06:17:06;;;;;;;6.40;1.73;;;6.50;92.20;;;;;;5031986;28;20467;-73
2020/12/28 06:19:32;;;;;;;6.03;1.88;;;6.50;92.20;;;;;;5013518;28;20014;-73
2020/12/28 06:21:58;;;;;;;6.47;2.08;;;6.40;92.20;;;;;;5031529;28;20467;-73
2020/12/28 06:24:31;;;;;;;6.70;2.45;;;6.40;92.20;;;;;;5013185;28;20025;-74
2020/12/28 06:27:02;;;;;;;3.63;1.60;;;6.40;92.10;;;;;;5030302;28;20136;-73
2020/12/28 06:29:28;;;;;;;5.93;2.30;;;6.50;92.10;;;;;;5029736;28;20025;-74
2020/12/28 06:31:54;;;;;;;3.35;1.85;;;6.50;92.10;;;;;;5030140;28;20017;-75
2020/12/28 06:34:20;;;;;;;3.38;1.80;;;6.40;92.10;;;;;;5012105;28;20069;-74
2020/12/28 06:36:45;;;;;;;5.47;2.10;;;6.50;92.10;;;;;;5029174;28;20025;-73
2020/12/28 06:39:11;;;;;;;4.72;1.65;;;6.40;92.10;;;;;;5029631;28;20097;-75
2020/12/28 06:41:37;;;;;;;4.72;2.05;;;6.50;92.10;;;;;;5029588;28;20013;-75
2020/12/28 06:44:03;;;;;;;5.85;2.40;;;6.40;92.00;;;;;;5030441;28;20026;-75
2020/12/28 06:46:30;;;;;;;6.57;2.22;;;6.40;92.00;;;;;;5029612;28;20486;-77
2020/12/28 06:48:58;;;;;;;4.68;1.77;;;6.40;92.10;;;;;;5030217;28;20017;-77
2020/12/28 06:51:24;;;;;;;7.03;2.13;;;6.40;92.00;;;;;;5029600;28;20037;-74
2020/12/28 06:53:54;;;;;;;6.15;2.42;;;6.50;92.10;;;;;;5029553;28;20030;-74
2020/12/28 06:56:20;;;;;;;6.78;2.35;;;6.50;92.10;;;;;;5030270;28;20370;-73
2020/12/28 06:58:56;;;;;;;7.45;2.40;;;6.50;92.10;;;;;;5031334;28;20096;-74
2020/12/28 07:01:24;;;;;;;5.13;1.85;;;6.50;92.00;;;;;;5014054;28;20017;-73
2020/12/28 07:03:51;;;;;;;7.45;2.45;;;6.40;92.00;;;;;;5013615;28;20033;-75
2020/12/28 07:06:18;;;;;;;8.88;2.45;;;6.50;92.00;;;;;;5014075;28;20165;-75
2020/12/28 07:08:44;;;;;;;8.98;2.55;;;6.40;92.00;;;;;;5031098;28;20467;-75
2020/12/28 07:11:09;;;;;;;8.35;2.70;;;6.40;92.10;;;;;;5014099;28;20040;-75
2020/12/28 07:13:35;;;;;;;5.72;2.35;;;6.30;92.10;;;;;;5013252;28;20366;-75
2020/12/28 07:16:05;;;;;;;5.60;2.40;;;6.30;92.20;;;;;;5014345;28;20032;-76
2020/12/28 07:18:31;;;;;;;7.15;2.10;;;6.30;92.30;;;;;;5013509;28;20017;-80
2020/12/28 07:20:58;;;;;;;7.95;2.55;;;6.20;92.30;;;;;;5031967;28;20104;-76
2020/12/28 07:23:31;;;;;;;8.38;1.98;;;6.30;92.40;;;;;;5013885;28;20408;-76
2020/12/28 07:26:06;;;;;;;6.68;2.40;;;6.30;92.30;;;;;;5013722;28;20029;-76
2020/12/28 07:28:33;;;;;;;4.75;2.17;;;6.20;92.30;;;;;;5014168;28;20026;-76
2020/12/28 07:31:00;;;;;;;6.20;1.92;;;6.20;92.30;;;;;;5032684;28;20079;-76
2020/12/28 07:33:26;;;;;;;8.02;2.60;;;6.30;92.30;;;;;;5035452;28;20107;-76
2020/12/28 07:36:11;;;;;;;7.05;2.05;;;6.30;92.30;;;;;;5016977;28;20048;-75
2020/12/28 07:38:38;;;;;;;6.38;2.22;;;6.30;92.20;;;;;;5034776;28;20020;-76
2020/12/28 07:41:04;;;;;;;5.20;2.00;;;6.30;92.20;;;;;;5035331;28;20063;-76
2020/12/28 07:43:30;;;;;;;8.13;2.67;;;6.30;92.20;;;;;;5017392;28;20101;-76
2020/12/28 07:46:07;;;;;;;7.20;2.25;;;6.30;92.20;;;;;;5034750;28;20071;-76
2020/12/28 07:48:36;;;;;;;6.05;2.08;;;6.40;92.10;;;;;;5016899;28;20347;-79
2020/12/28 07:51:06;;;;;;;7.05;2.50;;;6.40;92.10;;;;;;5017417;28;20014;-75
2020/12/28 07:53:38;;;;;;;7.10;3.05;;;6.40;92.10;;;;;;5035354;28;20022;-76
2020/12/28 07:56:04;;;;;;;;;;;6.40;92.40;;;;;;5035669;28;20017;-76
2020/12/28 07:58:49;;;;;;;6.20;1.85;;;6.40;92.10;;;;;;5036680;28;19963;-75
2020/12/28 08:01:31;;;;;;;5.25;2.03;;;6.40;92.10;;;;;;5035343;28;20049;-75
2020/12/28 08:04:01;;;;;;;4.38;1.90;;;6.40;92.10;;;;;;5018417;28;20029;-75
2020/12/28 08:06:27;;;;;;;5.35;1.98;;;6.40;92.10;;;;;;5034510;28;20017;-75
2020/12/28 08:09:00;;;;;;;5.65;1.70;;;6.40;92.10;;;;;;5034322;28;20021;-75
2020/12/28 08:11:29;;;;;;;4.72;1.95;;;6.40;92.00;;;;;;5034752;28;20104;-75
2020/12/28 08:13:56;;;;;;;5.28;2.17;;;6.40;92.00;;;;;;5034287;28;20064;-75
2020/12/28 08:16:21;;;;;;;4.05;1.65;;;6.50;92.10;;;;;;5016830;28;20017;-74
2020/12/28 08:18:55;;;;;;;5.03;2.03;;;6.40;92.00;;;;;;5016300;28;20436;-76
2020/12/28 08:21:25;;;;;;;2.78;1.40;;;6.50;92.10;;;;;;5016699;28;20020;-75
2020/12/28 08:23:53;;;;;;;4.50;1.50;;;6.50;92.10;;;;;;5016100;28;20057;-76
2020/12/28 08:26:21;;;;;;;6.43;1.63;;;6.50;92.00;;;;;;5016537;28;20075;-76
2020/12/28 08:28:48;;;;;;;4.72;1.90;;;6.50;92.00;;;;;;5033748;28;20367;-75
2020/12/28 08:31:14;;;;;;;3.92;1.80;;;6.50;92.00;;;;;;5034406;28;20028;-76
2020/12/28 08:33:39;;;;;;;3.58;1.33;;;6.50;92.00;;;;;;5033904;28;20029;-76
2020/12/28 08:36:05;;;;;;;3.30;1.58;;;6.50;92.00;;;;;;5034576;28;20046;-76
2020/12/28 08:38:32;;;;;;;5.65;2.05;;;6.50;92.00;;;;;;5034359;28;20370;-76
2020/12/28 08:40:58;;;;;;;4.38;2.05;;;6.50;91.90;;;;;;5015844;28;20103;-75
2020/12/28 08:43:24;;;;;;;4.97;2.22;;;6.50;91.90;;;;;;5033210;28;20025;-76
2020/12/28 08:46:01;;;;;;;5.20;2.35;;;6.50;91.90;;;;;;5015905;28;20033;-76
2020/12/28 08:48:27;;;;;;;7.10;2.90;;;6.50;91.90;;;;;;5016381;28;20026;-76
2020/12/28 08:50:53;;;;;;;3.42;1.50;;;6.60;91.90;;;;;;5015697;28;20414;-75
2020/12/28 08:53:23;;;;;;;6.88;1.95;;;6.60;91.80;;;;;;5033997;28;20022;-75
2020/12/28 08:55:58;;;;;;;4.20;1.73;;;6.60;91.80;;;;;;5033408;28;20443;-75
2020/12/28 08:58:24;;;;;;;4.60;1.95;;;6.60;91.80;;;;;;5016145;28;20021;-75
2020/12/28 09:00:49;;;;;;;4.63;1.75;;;6.60;91.90;;;;;;5033250;28;20104;-76
2020/12/28 09:03:15;;;;;;;7.03;2.00;;;6.60;91.80;;;;;;5015891;28;20113;-76
2020/12/28 09:05:41;;;;;;;8.65;2.40;;;6.60;91.80;;;;;;5015399;28;20405;-75
2020/12/28 09:08:06;;;;;;;4.97;1.90;;;6.60;91.80;;;;;;5033637;28;20439;-76
2020/12/28 09:10:32;;;;;;;5.47;2.10;;;6.60;91.80;;;;;;5015717;28;20021;-74
2020/12/28 09:12:57;;;;;;;4.32;1.90;;;6.50;91.90;;;;;;5015217;28;20470;-75
2020/12/28 09:15:23;;;;;;;4.05;2.10;;;6.50;92.00;;;;;;5033283;28;20047;-75
2020/12/28 09:17:49;;;;;;;7.05;1.90;;;6.40;92.10;;;;;;5032824;28;20369;-75
2020/12/28 09:20:14;;;;;;;4.38;1.80;;;6.40;92.10;;;;;;5015816;28;20332;-75
2020/12/28 09:22:40;;;;;;;5.97;2.20;;;6.30;92.20;;;;;;5032907;28;20029;-76
2020/12/28 09:25:06;;;;;;;4.93;1.70;;;6.30;92.20;;;;;;5033865;28;20021;-76
2020/12/28 09:27:32;;;;;;;4.15;1.70;;;6.30;92.30;;;;;;5016168;28;20013;-75
2020/12/28 09:29:57;;;;;;;4.43;2.05;;;6.20;92.30;;;;;;5032584;28;20513;-75
2020/12/28 09:32:23;;;;;;;5.05;2.00;;;6.20;92.30;;;;;;5033213;28;20025;-76
2020/12/28 09:34:49;;;;;;;4.15;2.40;;;6.20;92.30;;;;;;5032651;28;20370;-75
2020/12/28 09:37:14;;;;;;;5.53;1.88;;;6.20;92.30;;;;;;5015599;28;20109;-76
2020/12/28 09:39:41;;;;;;;5.15;2.08;;;6.30;92.30;;;;;;5015606;28;20403;-75
2020/12/28 09:42:07;;;;;;;6.40;2.70;;;6.30;92.50;;;;;;5015334;28;20025;-76
2020/12/28 09:44:32;;;;;;;3.88;2.28;;;6.30;92.20;;;;;;5015370;28;20026;-76
2020/12/28 09:46:58;;;;;;;6.30;2.17;;;6.40;92.20;;;;;;5014525;28;20064;-76
2020/12/28 09:49:25;;;;;;;4.20;2.00;;;6.40;92.20;;;;;;5015132;28;20018;-77
2020/12/28 09:51:54;;;;;;;3.92;1.67;;;6.40;92.10;;;;;;5014510;28;20067;-76
2020/12/28 09:54:23;;;;;;;2.38;1.15;;;6.40;92.10;;;;;;5015216;28;20017;-75
2020/12/28 09:56:49;;;;;;;2.00;1.35;;;6.50;92.00;;;;;;5014350;28;20066;-76
2020/12/28 09:59:15;;;;;;;2.45;1.40;;;6.50;92.00;;;;;;5032855;28;20025;-75
2020/12/28 10:01:45;;;;;;;1.88;1.10;;;6.50;92.00;;;;;;5033215;28;20017;-76
2020/12/28 10:04:11;;;;;;;3.65;1.20;;;6.60;92.00;;;;;;5035197;28;20083;-77
2020/12/28 10:06:38;;;;;;;1.63;1.00;;;6.50;92.00;;;;;;5033799;28;20112;-77
2020/12/28 10:09:06;;;;;;;3.47;1.33;;;6.50;92.00;;;;;;5035046;28;20026;-75
2020/12/28 10:11:32;;;;;;;3.58;1.60;;;6.60;92.10;;;;;;5033534;28;20028;-76
2020/12/28 10:13:57;;;;;;;3.63;1.92;;;6.60;92.00;;;;;;5031763;28;20014;-77
2020/12/28 10:16:29;;;;;;;4.18;1.67;;;6.60;92.00;;;;;;5014756;28;20018;-76
2020/12/28 10:18:55;;;;;;;5.00;2.03;;;6.60;92.00;;;;;;5031884;28;20019;-75
2020/12/28 10:21:22;;;;;;;4.60;1.95;;;6.60;92.00;;;;;;5032141;28;20413;-75
2020/12/28 10:23:48;;;;;;;3.08;1.42;;;6.60;92.00;;;;;;5014015;28;20021;-76
2020/12/28 10:26:25;;;;;;;3.85;1.80;;;6.60;92.00;;;;;;5032225;28;20025;-76
2020/12/28 10:28:52;;;;;;;3.42;1.92;;;6.70;92.00;;;;;;5031838;28;20036;-76
2020/12/28 10:31:19;;;;;;;3.58;1.90;;;6.70;92.00;;;;;;5014454;28;20508;-75
2020/12/28 10:33:47;;;;;;;3.33;1.48;;;6.70;92.00;;;;;;5031949;28;20029;-81
2020/12/28 10:36:18;;;;;;;2.67;1.45;;;6.70;91.90;;;;;;5032133;28;20120;-75
2020/12/28 10:38:49;;;;;;;2.53;1.33;;;6.70;91.90;;;;;;5014597;28;20069;-82
2020/12/28 10:41:16;;;;;;;4.80;1.42;;;6.70;91.90;;;;;;5032266;28;20029;-76
2020/12/28 10:43:42;;;;;;;2.22;1.40;;;6.70;91.90;;;;;;5030745;28;20124;-75
2020/12/28 10:46:10;;;;;;;4.60;1.60;;;6.70;91.90;;;;;;5032156;28;20028;-76
2020/12/28 10:48:36;;;;;;;3.42;1.45;;;6.80;91.90;;;;;;5031955;28;20062;-76
2020/12/28 10:51:03;;;;;;;2.28;1.42;;;6.90;91.70;;;;;;5013820;28;20018;-76
2020/12/28 10:53:29;;;;;;;4.00;1.58;;;6.90;91.70;;;;;;5032456;28;20105;-74
2020/12/28 10:55:54;;;;;;;3.55;1.30;;;6.90;91.60;;;;;;5031800;28;20100;-75
2020/12/28 10:58:20;;;;;;;2.58;1.48;;;6.90;91.70;;;;;;5032291;28;20026;-74
2020/12/28 11:00:51;;;;;;;2.97;1.48;;;6.90;91.70;;;;;;5014283;28;20447;-75
2020/12/28 11:03:16;;;;;;;2.38;1.40;;;6.90;91.70;;;;;;5032114;28;20071;-75
2020/12/28 11:05:42;;;;;;;2.08;1.15;;;6.90;91.80;;;;;;5032009;28;20030;-75
2020/12/28 11:08:07;;;;;;;1.55;1.20;;;6.80;91.80;;;;;;5017639;28;20094;-75
2020/12/28 11:10:33;;;;;;;2.85;1.38;;;6.80;91.80;;;;;;5017951;28;20021;-76
2020/12/28 11:12:59;;;;;;;2.80;1.27;;;6.90;91.80;;;;;;5035253;28;20021;-76
2020/12/28 11:15:25;;;;;;;2.03;1.30;;;6.90;91.80;;;;;;5035746;28;20017;-75
2020/12/28 11:17:50;;;;;;;2.42;1.00;;;6.90;91.80;;;;;;5017400;28;20363;-75
2020/12/28 11:20:16;;;;;;;1.75;1.02;;;6.80;91.80;;;;;;5035800;28;20436;-76
2020/12/28 11:22:42;;;;;;;10.02;4.57;;;6.90;91.80;;;;;;5035551;28;20447;-76
2020/12/28 11:25:08;;;;;;;5.03;1.48;;;6.90;91.80;;;;;;5017369;28;20223;-75
2020/12/28 11:27:33;;;;;;;2.22;1.17;;;6.90;91.80;;;;;;5017952;28;20071;-75
2020/12/28 11:29:59;;;;;;;1.00;0.90;;;6.90;91.80;;;;;;5035041;28;20029;-76
2020/12/28 11:32:27;;;;;;;3.00;1.30;;;7.00;91.70;;;;;;5017831;28;20045;-76
2020/12/28 11:34:53;;;;;;;2.92;1.02;;;7.00;91.70;;;;;;5016767;28;20051;-76
2020/12/28 11:37:19;;;;;;;4.97;1.33;;;7.10;91.70;;;;;;5017939;28;20112;-76
2020/12/28 11:39:44;;;;;;;2.25;1.25;;;7.00;91.60;;;;;;5035052;28;20505;-75
2020/12/28 11:42:10;;;;;;;1.73;1.00;;;7.10;91.60;;;;;;5034357;28;20053;-76
2020/12/28 11:44:36;;;;;;;4.53;1.50;;;7.00;91.60;;;;;;5017206;28;20013;-76
2020/12/28 11:47:02;;;;;;;5.40;1.40;;;7.00;91.60;;;;;;5034613;28;20032;-77
2020/12/28 11:49:28;;;;;;;1.48;1.10;;;7.00;91.60;;;;;;5017499;28;20013;-76
2020/12/28 11:51:53;;;;;;;2.78;1.38;;;7.00;91.60;;;;;;5034456;28;20360;-76
2020/12/28 11:54:20;;;;;;;1.90;1.30;;;7.00;91.60;;;;;;5017227;28;20021;-76
2020/12/28 11:56:46;;;;;;;1.67;1.00;;;7.00;91.60;;;;;;5035201;28;20018;-75
2020/12/28 11:59:12;;;;;;;2.17;1.90;;;7.00;91.60;;;;;;5034005;28;20028;-76
2020/12/28 12:01:45;;;;;;;2.90;1.33;;;7.00;91.60;;;;;;5034550;28;20459;-76
2020/12/28 12:04:11;;;;;;;3.20;1.60;;;7.00;91.50;;;;;;5016651;28;20229;-75
2020/12/28 12:06:36;;;;;;;2.85;1.27;;;7.00;91.50;;;;;;5035093;28;20100;-75
2020/12/28 12:09:12;;;;;;;2.53;1.33;;;7.10;91.50;;;;;;5016887;28;20473;-75
2020/12/28 12:11:45;;;;;;;2.78;1.40;;;7.00;91.50;;;;;;5035389;28;20127;-76
2020/12/28 12:14:15;;;;;;;2.47;1.30;;;7.10;91.50;;;;;;5017070;28;20017;-75
2020/12/28 12:16:41;;;;;;;3.13;1.20;;;7.10;91.50;;;;;;5035076;28;20013;-75
2020/12/28 12:19:07;;;;;;;7.30;4.07;;;7.10;91.40;;;;;;5032760;28;20405;-75
2020/12/28 12:21:33;;;;;;;4.70;1.88;;;7.10;91.40;;;;;;5034692;28;20025;-75
2020/12/28 12:23:59;;;;;;;4.00;1.52;;;7.10;91.40;;;;;;5033852;28;20033;-75
2020/12/28 12:26:26;;;;;;;1.00;0.90;;;7.10;91.40;;;;;;5034683;28;20060;-76
2020/12/28 12:28:53;;;;;;;1.77;0.95;;;7.10;91.30;;;;;;5034383;28;20100;-76
2020/12/28 12:31:19;;;;;;;1.35;0.80;;;7.20;91.30;;;;;;5016625;28;20049;-76
2020/12/28 12:33:45;;;;;;;1.50;0.90;;;7.20;91.30;;;;;;5016459;28;20069;-77
2020/12/28 12:36:12;;;;;;;0.90;0.90;;;7.20;91.50;;;;;;5015641;28;20037;-77
2020/12/28 12:38:38;;;;;;;1.55;0.98;;;7.20;91.20;;;;;;5034106;28;20029;-76
2020/12/28 12:41:04;;;;;;;0.90;0.88;;;7.30;91.20;;;;;;5033859;28;20473;-76
2020/12/28 12:43:29;;;;;;;1.60;0.80;;;7.30;91.20;;;;;;5016423;28;20074;-76
2020/12/28 12:45:55;;;;;;;2.95;1.17;;;7.30;91.10;;;;;;5033773;28;20024;-78
2020/12/28 12:48:21;;;;;;;2.58;1.10;;;7.30;91.10;;;;;;5033649;28;20471;-77
2020/12/28 12:50:47;;;;;;;2.50;1.45;;;7.30;91.10;;;;;;5033944;28;20448;-76
2020/12/28 12:53:13;;;;;;;3.22;1.40;;;7.40;91.00;;;;;;5033101;28;20378;-76
2020/12/28 12:55:41;;;;;;;4.05;1.30;;;7.40;91.00;;;;;;5033696;28;20022;-76
2020/12/28 12:58:08;;;;;;;1.13;0.90;;;7.40;90.90;;;;;;5033387;28;20045;-76